Airfield :
LOGIN :

Register | Disclaimer

   EN    FR    IT 

 










Legend :    VFR   Marginal VFR   IFR   Intensive IFR   Very Intensive IFR
Visi :
Ceiling :
>= 8 km
>= 3000ft
5 to 8 km
1000 to 3000 ft
1500m to 5 km
500 to 1000 ft
800 to 1500m
200 to 500 ft
< 800m
< 200 ft
Symbols :   Thunderstorms  Fog  Heavy snow  Heavy precipitations  Wind > 20 kt
SIGMETs :     Misc.  Thunderstorms  Icing  Turbulence  Mountain Waves  Volcanic Ashes







- Airport Elevation : 74 ft
- IATA code : EIN


EHEH - Eindhoven

CURRENT METAR :
  • 212225Z AUTO 03008KT 8000 HZ NCD M02/M05 Q1025 BLU

EXPIRED METARs :
  • 212200Z AUTO 03008KT 8000 HZ NCD M02/M05 Q1025 BLU
  • 212125Z AUTO 04008KT 350V080 8000 HZ NCD M01/M04 Q1025 BLU 04007KT 8000 NSC
  • 212055Z AUTO 04008KT 9000 HZ NCD M01/M04 Q1025 BLU 04007KT 9000 NSC
  • 212025Z AUTO 03008KT 8000 HZ NCD M02/M05 Q1025 BLU 04007KT 9000 NSC
  • 211955Z AUTO 03008KT 9000 HZ NCD M02/M05 Q1024 BLU 04007KT 9000 NSC

TAF TAF EHEH
Valid from the 21 at 18:00 until the 23 at 00:00 UTC


211737Z 2118/2224 04007KT 8000 NSC
No reported NOTAMs for that airfield.



MET'MAP, your aeronautical weather chart ! - Copyright ORBIFLY December 2007 - Disclaimer

ORBIFLY MET'MAP TEAM :

Programming & Development : Alexandra Zaïnal
Concept & Development : Baudouin d'Aumeries
Co-Development & Prog : Marc-Olivier Méhu
Technical & hardware support : Manuel Goepfert

Contact : metmap@orbifly.com




SOURCES & CREDITS :

   NOAA